Time;durP1;ratioP1;P1;durP2;ratioP2;P2;SDS_P1;SDS_P2;PMS_P1;PMS_P2;Temp;Humidity;BMP_temperature;BMP_pressure;BME280_temperature;BME280_humidity;BME280_pressure;Samples;Min_cycle;Max_cycle;Signal;HPM_P1;HPM_P2
2023/01/24 01:45:43;;;;;;;24.90;8.50;;;;;;;-1.32;100.00;102953.08;104030;1283;616325;-82
2023/01/24 01:48:23;;;;;;;26.30;8.10;;;;;;;-1.24;100.00;102950.66;104239;1283;63548;-83
2023/01/24 01:51:01;;;;;;;19.90;7.60;;;;;;;-1.09;100.00;102951.97;104121;1282;60753;-82
2023/01/24 01:59:02;;;;;;;24.10;7.90;;;;;;;-0.75;100.00;102953.53;103054;1292;600260;-83
2023/01/24 02:01:28;;;;;;;22.40;7.90;;;;;;;-0.71;100.00;102954.13;103297;1294;63344;-81
2023/01/24 02:04:03;;;;;;;18.70;7.30;;;;;;;-0.66;100.00;102949.98;106388;1291;58195;-82
2023/01/24 02:06:50;;;;;;;24.50;7.40;;;;;;;-0.61;100.00;102948.89;106409;1292;73190;-81
2023/01/24 02:09:23;;;;;;;22.40;6.80;;;;;;;-0.57;100.00;102947.45;106445;1289;73523;-81
2023/01/24 02:11:53;;;;;;;24.00;8.30;;;;;;;-0.51;100.00;102948.92;106248;1288;225717;-82
2023/01/24 02:17:41;;;;;;;24.60;8.50;;;;;;;-0.46;100.00;102949.55;106717;1286;58671;-83
2023/01/24 02:20:13;;;;;;;20.50;7.90;;;;;;;-0.45;100.00;102947.05;106670;1286;58057;-88
2023/01/24 02:23:14;;;;;;;25.70;8.30;;;;;;;-0.41;100.00;102949.70;106582;1288;74732;-83
2023/01/24 02:25:58;;;;;;;26.70;8.00;;;;;;;-0.42;100.00;102945.52;106204;1292;72472;-83
2023/01/24 02:28:24;;;;;;;29.90;8.20;;;;;;;-0.47;100.00;102946.51;106244;1291;60915;-86
2023/01/24 02:30:49;;;;;;;23.40;8.90;;;;;;;-0.48;100.00;102945.34;106254;1292;58097;-83
2023/01/24 02:36:40;;;;;;;21.10;7.60;;;;;;;-0.48;100.00;102941.73;106314;1291;73178;-81
2023/01/24 02:42:34;;;;;;;23.20;8.20;;;;;;;-0.49;100.00;102941.31;106252;1291;61323;-81
2023/01/24 02:45:10;;;;;;;27.60;7.80;;;;;;;-0.51;100.00;102946.65;106167;1291;61025;-82
2023/01/24 02:47:40;;;;;;;24.20;8.60;;;;;;;-0.56;100.00;102945.48;106197;1291;73634;-80
2023/01/24 02:50:08;;;;;;;21.10;7.90;;;;;;;-0.56;100.00;102944.05;106065;1292;74495;-82
2023/01/24 02:55:18;;;;;;;29.50;9.00;;;;;;;-0.59;100.00;102949.45;106160;1290;60910;-82
2023/01/24 03:00:27;;;;;;;25.70;8.70;;;;;;;-0.64;100.00;102948.09;106168;1292;73426;-82
2023/01/24 03:02:53;;;;;;;26.00;7.30;;;;;;;-0.64;100.00;102951.81;106557;1286;58415;-83
2023/01/24 03:08:41;;;;;;;20.60;7.00;;;;;;;-0.70;100.00;102955.79;106766;1285;60771;-82
2023/01/24 03:11:08;;;;;;;23.40;7.20;;;;;;;-0.71;100.00;102955.02;106657;1286;58176;-81
2023/01/24 03:36:06;;;;;;;18.20;6.40;;;;;;;-0.97;100.00;102960.86;106469;1288;60672;-89
2023/01/24 03:44:38;;;;;;;25.70;7.20;;;;;;;-1.26;100.00;102969.21;106534;1288;73270;-82
2023/01/24 03:47:03;;;;;;;23.70;7.00;;;;;;;-1.37;100.00;102967.59;106388;1288;58298;-82
2023/01/24 03:52:28;;;;;;;25.70;7.40;;;;;;;-1.54;100.00;102971.91;106867;1285;60276;-83
2023/01/24 03:54:58;;;;;;;25.90;7.80;;;;;;;-1.62;100.00;102972.95;106352;1290;73004;-83
2023/01/24 03:57:24;;;;;;;21.60;7.00;;;;;;;-1.70;100.00;102974.77;106283;1289;74385;-83
2023/01/24 03:59:50;;;;;;;24.00;6.80;;;;;;;-1.77;100.00;102973.09;106422;1288;72504;-83
2023/01/24 04:05:37;;;;;;;27.00;7.00;;;;;;;-1.85;100.00;102967.34;106521;1288;59223;-81
2023/01/24 04:08:03;;;;;;;26.70;7.20;;;;;;;-1.82;100.00;102971.16;106424;1288;58219;-83
2023/01/24 04:10:30;;;;;;;24.60;7.00;;;;;;;-1.86;100.00;102969.67;106261;1289;58204;-82
2023/01/24 04:12:55;;;;;;;27.80;7.90;;;;;;;-1.83;100.00;102966.98;106373;1289;58520;-82
2023/01/24 04:15:24;;;;;;;23.70;7.50;;;;;;;-1.80;100.00;102971.73;106537;1288;59005;-83
2023/01/24 04:17:50;;;;;;;21.30;6.70;;;;;;;-1.85;100.00;102974.20;106525;1287;58313;-82
2023/01/24 04:26:58;;;;;;;23.40;7.90;;;;;;;-2.00;100.00;102989.83;106748;1286;71293;-83
2023/01/24 04:39:29;;;;;;;26.20;7.50;;;;;;;-2.09;100.00;103002.09;106888;1285;71996;-82
2023/01/24 04:41:54;;;;;;;30.40;8.20;;;;;;;-2.08;100.00;102999.89;106922;1285;58091;-88
2023/01/24 04:44:20;;;;;;;28.40;8.20;;;;;;;-2.08;100.00;103003.75;106722;1286;58141;-83
2023/01/24 04:46:45;;;;;;;24.60;7.40;;;;;;;-2.05;100.00;103002.34;106797;1285;58301;-86
2023/01/24 04:49:11;;;;;;;22.50;7.00;;;;;;;-2.07;100.00;103007.91;106861;1285;58108;-83
2023/01/24 04:51:41;;;;;;;27.30;8.50;;;;;;;-2.08;100.00;103005.20;106797;1285;73370;-81
2023/01/24 04:54:07;;;;;;;25.40;8.00;;;;;;;-2.15;100.00;103006.80;106766;1285;60615;-87
2023/01/24 04:56:33;;;;;;;24.90;8.10;;;;;;;-2.18;100.00;103009.13;106816;1284;58237;-83
2023/01/24 04:58:58;;;;;;;20.40;7.20;;;;;;;-2.21;100.00;103012.51;106901;1285;58085;-82
2023/01/24 05:01:24;;;;;;;23.60;7.30;;;;;;;-2.24;100.00;103008.55;106529;1286;58686;-82
2023/01/24 05:03:49;;;;;;;22.50;7.20;;;;;;;-2.27;100.00;103014.05;106814;1285;58141;-82
2023/01/24 05:06:15;;;;;;;22.40;7.20;;;;;;;-2.28;100.00;103017.09;106593;1285;59517;-89
2023/01/24 05:12:02;;;;;;;22.90;7.30;;;;;;;-2.38;100.00;103018.57;106854;1285;73337;-83
2023/01/24 05:17:49;;;;;;;21.20;7.50;;;;;;;-2.38;100.00;103021.70;106891;1285;60310;-82
2023/01/24 05:20:15;;;;;;;24.90;7.50;;;;;;;-2.42;100.00;103021.85;106883;1284;58126;-89
2023/01/24 05:26:03;;;;;;;24.00;7.50;;;;;;;-2.39;100.00;103028.14;106894;1285;72830;-82
2023/01/24 05:28:29;;;;;;;28.10;8.10;;;;;;;-2.44;100.00;103025.36;106454;1284;58181;-87
2023/01/24 05:34:16;;;;;;;18.90;6.50;;;;;;;-2.51;100.00;103031.14;106857;1285;60054;-82
2023/01/24 05:36:42;;;;;;;22.80;7.60;;;;;;;-2.47;100.00;103037.90;106918;1285;58088;-83
2023/01/24 05:39:07;;;;;;;20.30;6.90;;;;;;;-2.57;100.00;103037.02;106910;1285;58198;-82
2023/01/24 05:41:33;;;;;;;31.60;7.50;;;;;;;-2.63;100.00;103039.23;106908;1285;58537;-82
2023/01/24 05:43:59;;;;;;;23.90;7.60;;;;;;;-2.64;100.00;103042.50;106925;1285;58177;-83
2023/01/24 05:46:25;;;;;;;25.30;8.00;;;;;;;-2.68;100.00;103040.98;106881;1285;72868;-89
2023/01/24 05:52:14;;;;;;;27.10;8.00;;;;;;;-2.59;100.00;103041.04;106934;1285;71613;-84
2023/01/24 05:54:40;;;;;;;23.80;7.80;;;;;;;-2.51;100.00;103036.78;106688;1285;62763;-83
2023/01/24 06:00:27;;;;;;;21.60;8.50;;;;;;;-2.66;100.00;103045.63;106908;1284;71593;-81
2023/01/24 06:06:17;;;;;;;27.00;8.40;;;;;;;-2.69;100.00;103043.94;106894;1285;71301;-84
2023/01/24 06:08:43;;;;;;;21.40;7.60;;;;;;;-2.71;100.00;103046.49;106528;1286;61868;-83
2023/01/24 06:11:15;;;;;;;31.50;9.00;;;;;;;-2.74;100.00;103047.25;106857;1285;57991;-83
2023/01/24 06:13:42;;;;;;;28.10;7.20;;;;;;;-2.74;100.00;103047.61;106891;1285;74008;-83
2023/01/24 06:23:24;;;;;;;20.70;7.50;;;;;;;-2.68;100.00;103042.41;106908;1285;61570;-83
2023/01/24 06:25:50;;;;;;;27.80;7.60;;;;;;;-2.65;100.00;103046.25;106905;1285;61112;-82
2023/01/24 06:28:16;;;;;;;18.60;6.70;;;;;;;-2.62;100.00;103046.20;106884;1285;58338;-84
2023/01/24 06:31:08;;;;;;;22.80;6.90;;;;;;;-2.60;100.00;103044.30;106759;1285;59055;-83
2023/01/24 06:37:08;;;;;;;23.20;7.10;;;;;;;-2.61;100.00;103041.75;106867;1285;60598;-81
2023/01/24 06:39:34;;;;;;;26.90;7.70;;;;;;;-2.58;100.00;103044.19;106909;1285;59046;-83
2023/01/24 06:45:21;;;;;;;22.00;6.60;;;;;;;-2.56;100.00;103039.58;106911;1284;73286;-82
2023/01/24 06:47:47;;;;;;;26.80;7.10;;;;;;;-2.53;100.00;103041.65;106860;1284;58279;-80
2023/01/24 06:56:55;;;;;;;19.50;6.40;;;;;;;-2.54;100.00;103037.67;106471;1288;73617;-82
2023/01/24 06:59:22;;;;;;;20.90;6.70;;;;;;;-2.53;100.00;103035.84;106229;1289;58447;-82
2023/01/24 11:14:36;;;;;;;49.80;16.30;;;;;;;-2.82;100.00;102960.05;103947;1280;615947;-78
2023/01/24 11:17:02;;;;;;;;;;;;;;;-2.77;100.00;102957.59;103463;1286;60779;-78
2023/01/24 11:19:35;;;;;;;;;;;;;;;-2.68;100.00;102952.73;103553;1291;60344;-78
2023/01/24 11:22:01;;;;;;;;;;;;;;;-2.60;100.00;102952.11;103198;1291;72116;-78
2023/01/24 11:24:42;;;;;;;;;;;;;;;-2.57;100.00;102953.08;103174;1289;60253;-82
2023/01/24 11:27:18;;;;;;;;;;;;;;;-2.53;100.00;102953.52;103572;1285;245521;-76
2023/01/24 11:30:09;;;;;;;;;;;;;;;-2.54;100.00;102953.95;104149;1288;63319;-78
2023/01/24 11:32:38;;;;;;;;;;;;;;;-2.49;100.00;102953.02;103452;1294;60976;-79
2023/01/24 11:35:16;;;;;;;;;;;;;;;-2.44;100.00;102948.42;103125;1292;73564;-79
2023/01/24 11:37:54;;;;;;;;;;;;;;;-2.35;100.00;102953.34;102992;1293;74337;-79
2023/01/24 11:40:24;;;;;;;;;;;;;;;-2.31;100.00;102951.67;102715;1293;72947;-77
2023/01/24 11:42:50;;;;;;;;;;;;;;;-2.31;100.00;102953.95;102819;1294;62231;-79
2023/01/24 11:45:34;;;;;;;;;;;;;;;-2.32;100.00;102951.77;103013;1293;60635;-78
2023/01/24 11:47:59;;;;;;;;;;;;;;;-2.27;100.00;102948.55;103158;1289;74328;-79
2023/01/24 11:50:37;;;;;;;;;;;;;;;-2.27;100.00;102948.20;103378;1292;60452;-78
2023/01/24 11:53:14;;;;;;;;;;;;;;;-2.22;100.00;102944.87;103166;1293;73024;-78
2023/01/24 11:56:16;;;;;;;;;;;;;;;-2.19;100.00;102945.83;103412;1292;62486;-78
2023/01/24 11:59:20;;;;;;;;;;;;;;;-2.18;100.00;102947.69;102555;1294;61499;-78
2023/01/24 12:01:45;;;;;;;;;;;;;;;-2.17;100.00;102944.59;102164;1303;74168;-78
2023/01/24 12:04:13;;;;;;;;;;;;;;;-2.13;100.00;102946.12;102079;1305;60552;-77
2023/01/24 12:06:45;;;;;;;;;;;;;;;-2.10;100.00;102950.10;102129;1305;73219;-75
2023/01/24 12:09:20;;;;;;;;;;;;;;;-2.10;100.00;102957.45;102026;1296;61728;-79
2023/01/24 12:11:53;;;;;;;;;;;;;;;-2.12;100.00;102955.52;102548;1294;60304;-77
2023/01/24 12:14:24;;;;;;;;;;;;;;;-2.07;100.00;102951.79;102611;1294;73660;-75
2023/01/24 12:16:54;;;;;;;;;;;;;;;-2.07;100.00;102954.56;102565;1294;73570;-78
2023/01/24 12:19:38;;;;;;;;;;;;;;;-2.04;100.00;102953.63;102789;1294;74568;-76
2023/01/24 12:22:09;;;;;;;;;;;;;;;-2.07;100.00;102953.17;102690;1294;62423;-78
2023/01/24 12:24:42;;;;;;;;;;;;;;;-2.03;100.00;102955.30;102440;1296;61231;-78
2023/01/24 12:27:14;;;;;;;;;;;;;;;-2.01;100.00;102953.59;102632;1298;74274;-78
2023/01/24 12:29:42;;;;;;;;;;;;;;;-1.99;100.00;102950.45;102675;1300;75024;-76
2023/01/24 12:32:21;;;;;;;;;;;;;;;-2.01;100.00;102946.70;102721;1299;73240;-81
2023/01/24 12:34:52;;;;;;;;;;;;;;;-2.02;100.00;102943.45;103469;1289;63406;-78
2023/01/24 12:37:34;;;;;;;;;;;;;;;-2.00;100.00;102939.65;103459;1287;61421;-84
2023/01/24 12:40:03;;;;;;;;;;;;;;;-1.99;100.00;102946.23;103937;1279;71611;-78
2023/01/24 12:42:47;;;;;;;;;;;;;;;-1.95;100.00;102948.36;104059;1282;73471;-77
2023/01/24 12:45:48;;;;;;;;;;;;;;;-1.92;100.00;102948.32;104245;1282;74750;-78
2023/01/24 12:51:38;;;;;;;;;;;;;;;-1.91;100.00;102947.16;103392;1286;598952;-78
2023/01/24 12:54:19;;;;;;;;;;;;;;;-1.90;100.00;102947.11;103445;1287;63639;-79
2023/01/24 12:56:44;;;;;;;;;;;;;;;-1.93;100.00;102947.33;103506;1286;61343;-78
2023/01/24 12:59:24;;;;;;;;;;;;;;;-1.91;100.00;102942.73;103487;1287;60476;-75
2023/01/24 13:01:55;;;;;;;;;;;;;;;-1.91;100.00;102944.20;103197;1288;73358;-76
2023/01/24 13:04:39;;;;;;;;;;;;;;;-1.86;100.00;102939.00;103410;1288;234037;-77
2023/01/24 13:07:14;;;;;;;;;;;;;;;-1.89;100.00;102937.50;103489;1286;62605;-77
2023/01/24 13:09:39;;;;;;;;;;;;;;;-1.92;100.00;102940.73;103660;1283;60436;-78
2023/01/24 13:12:14;;;;;;;;;;;;;;;-1.94;100.00;102942.14;103677;1287;60351;-77
2023/01/24 13:14:45;;;;;;;;;;;;;;;-1.90;100.00;102940.59;103590;1285;73382;-76
2023/01/24 13:17:46;;;;;;;;;;;;;;;-1.84;100.00;102934.79;102859;1292;599382;-82
2023/01/24 13:20:21;;;;;;;;;;;;;;;-1.87;100.00;102932.41;102815;1294;62558;-78
2023/01/24 13:23:05;;;;;;;;;;;;;;;-1.90;100.00;102935.27;102596;1293;60515;-78
2023/01/24 13:25:30;;;;;;;;;;;;;;;-1.87;100.00;102933.86;103062;1297;72631;-78
2023/01/24 13:27:58;;;;;;;;;;;;;;;-1.84;100.00;102939.43;102983;1295;60300;-78
2023/01/24 13:30:34;;;;;;;;;;;;;;;-1.90;100.00;102933.92;95635;1292;10239600;-84
2023/01/24 13:33:04;;;;;;;;;;;;;;;-1.91;100.00;102935.56;103101;1292;73448;-78
2023/01/24 13:35:29;;;;;;;;;;;;;;;-1.92;100.00;102930.51;103047;1294;73910;-77
2023/01/24 13:37:55;;;;;;;;;;;;;;;-1.89;100.00;102934.31;103263;1294;60364;-76
2023/01/24 13:40:20;;;;;;;;;;;;;;;-1.88;100.00;102935.48;103134;1291;60428;-79
2023/01/24 13:42:55;;;;;;;;;;;;;;;-1.85;100.00;102937.02;103236;1294;60495;-79
2023/01/24 13:45:30;;;;;;;;;;;;;;;-1.87;100.00;102939.87;102898;1292;74302;-78
2023/01/24 13:47:59;;;;;;;;;;;;;;;-1.89;100.00;102937.84;102991;1292;74883;-79
2023/01/24 13:54:01;;;;;;;;;;;;;;;-1.87;100.00;102937.36;102861;1294;598660;-77
2023/01/24 13:56:27;;;;;;;;;;;;;;;-1.88;100.00;102934.41;102945;1291;62203;-83
2023/01/24 13:58:53;;;;;;;;;;;;;;;-1.85;100.00;102938.02;103013;1291;60439;-75
2023/01/24 14:07:17;;;;;;;63.00;23.00;;;;;;;-2.07;100.00;102942.59;103004;1290;601073;-73
2023/01/24 14:09:44;;;;;;;71.60;24.10;;;;;;;-2.05;100.00;102938.22;103046;1292;63237;-78
2023/01/24 14:12:18;;;;;;;67.80;23.00;;;;;;;-2.01;100.00;102940.88;103086;1291;61756;-77
2023/01/24 14:15:31;;;;;;;77.20;24.60;;;;;;;-2.02;100.00;102937.27;102798;1293;72564;-76
2023/01/24 14:17:58;;;;;;;69.70;23.30;;;;;;;-1.99;100.00;102935.34;102537;1298;74663;-77
2023/01/24 14:20:43;;;;;;;78.40;25.20;;;;;;;-2.00;100.00;102936.40;95061;1294;10281800;-83
2023/01/24 14:23:24;;;;;;;57.50;20.30;;;;;;;-1.94;100.00;102935.30;102515;1299;73421;-77
2023/01/24 14:25:53;;;;;;;74.00;24.20;;;;;;;-1.99;100.00;102931.77;102666;1294;75313;-78
2023/01/24 14:28:21;;;;;;;70.80;24.50;;;;;;;-1.97;100.00;102933.88;102675;1298;73993;-77
2023/01/24 14:30:52;;;;;;;47.00;18.10;;;;;;;-1.98;100.00;102929.41;102475;1299;62506;-77
2023/01/24 14:33:33;;;;;;;76.70;25.30;;;;;;;-1.98;100.00;102933.08;102444;1298;61475;-75
2023/01/24 14:36:11;;;;;;;66.80;23.10;;;;;;;-1.97;100.00;102931.11;102469;1297;74132;-77
2023/01/24 14:38:37;;;;;;;72.20;24.20;;;;;;;-1.97;100.00;102929.90;102570;1300;74944;-83
2023/01/24 20:23:08;;;;;;;61.20;20.30;;;;;;;-3.21;100.00;102893.84;104758;1273;61944;-77
2023/01/24 20:25:36;;;;;;;57.40;22.70;;;;;;;-3.12;100.00;102892.33;104713;1276;61505;-79
2023/01/24 20:28:20;;;;;;;59.00;21.10;;;;;;;-3.04;100.00;102891.90;104570;1273;72067;-80
2023/01/24 20:30:46;;;;;;;81.70;27.60;;;;;;;-2.95;100.00;102893.84;104538;1273;285193;-82
2023/01/24 20:33:36;;;;;;;69.50;23.00;;;;;;;-2.88;100.00;102891.76;104862;1276;60436;-79
2023/01/24 20:36:10;;;;;;;60.50;20.50;;;;;;;-2.83;100.00;102890.13;104559;1277;63322;-79
2023/01/24 20:38:40;;;;;;;52.50;18.10;;;;;;;-2.80;100.00;102893.08;104780;1276;61445;-79
2023/01/24 20:41:19;;;;;;;56.80;18.70;;;;;;;-2.77;100.00;102892.65;104812;1273;73467;-79
2023/01/24 20:43:46;;;;;;;51.60;17.70;;;;;;;-2.76;100.00;102890.09;104880;1276;74901;-80
2023/01/24 20:46:21;;;;;;;51.80;18.20;;;;;;;-2.72;100.00;102890.06;104858;1274;73855;-79
2023/01/24 20:48:58;;;;;;;53.70;19.50;;;;;;;-2.69;100.00;102885.58;104550;1279;61871;-86
2023/01/24 21:05:20;;;;;;;48.30;17.10;;;;;;;-2.57;100.00;102870.40;104882;1273;63202;-79
2023/01/24 21:11:17;;;;;;;46.40;17.50;;;;;;;-2.55;100.00;102868.10;106111;1270;70814;-77
2023/01/24 21:17:05;;;;;;;54.80;17.50;;;;;;;-2.43;100.00;102864.59;105892;1270;71213;-79
2023/01/24 21:19:42;;;;;;;54.50;18.20;;;;;;;-2.42;100.00;102864.14;105792;1270;60385;-79
2023/01/24 21:22:08;;;;;;;56.00;20.10;;;;;;;-2.41;100.00;102862.31;105521;1270;60673;-84
2023/01/24 21:24:34;;;;;;;48.20;17.40;;;;;;;-2.42;100.00;102861.92;105536;1270;73604;-79
2023/01/24 21:27:01;;;;;;;45.40;17.70;;;;;;;-2.44;100.00;102861.83;105146;1269;60376;-78
2023/01/24 21:29:27;;;;;;;52.30;18.60;;;;;;;-2.45;100.00;102862.48;105094;1270;60469;-82
2023/01/24 21:31:52;;;;;;;50.70;18.50;;;;;;;-2.45;100.00;102863.70;104791;1270;61496;-79
2023/01/24 21:37:40;;;;;;;56.60;20.70;;;;;;;-2.34;100.00;102872.88;104850;1273;74401;-84
2023/01/24 21:40:18;;;;;;;54.40;20.00;;;;;;;-2.31;100.00;102874.54;104568;1270;60434;-79
2023/01/24 21:42:44;;;;;;;54.10;18.70;;;;;;;-2.29;100.00;102867.89;104909;1273;72647;-79
2023/01/24 21:45:10;;;;;;;55.20;18.80;;;;;;;-2.32;100.00;102869.70;104818;1270;60341;-76
2023/01/24 21:47:42;;;;;;;60.30;19.30;;;;;;;-2.32;100.00;102870.92;104893;1274;60449;-79
2023/01/24 21:50:09;;;;;;;54.20;18.90;;;;;;;-2.34;100.00;102863.52;104645;1271;74422;-77
2023/01/24 21:52:53;;;;;;;52.50;18.70;;;;;;;-2.36;100.00;102863.33;104714;1273;60369;-79
2023/01/24 21:55:18;;;;;;;55.90;18.80;;;;;;;-2.38;100.00;102865.81;105056;1270;74004;-77
2023/01/24 21:58:02;;;;;;;58.90;19.20;;;;;;;-2.39;100.00;102860.52;104975;1270;60392;-78
2023/01/24 22:00:27;;;;;;;59.60;19.80;;;;;;;-2.36;100.00;102855.92;105117;1270;60844;-79
2023/01/24 22:03:23;;;;;;;55.00;18.40;;;;;;;-2.35;100.00;102856.18;104773;1270;60400;-78
2023/01/24 22:05:44;;;;;;;53.10;16.50;;;;;;;-2.34;100.00;102856.27;104687;1273;73405;-76
2023/01/24 22:08:10;;;;;;;52.80;18.90;;;;;;;-2.31;100.00;102856.25;104725;1273;72983;-77
2023/01/24 22:10:38;;;;;;;45.60;16.40;;;;;;;-2.28;100.00;102854.48;104880;1274;60399;-77
2023/01/24 22:13:03;;;;;;;52.90;17.40;;;;;;;-2.26;100.00;102853.09;104810;1273;61828;-79
2023/01/24 22:15:32;;;;;;;48.80;16.80;;;;;;;-2.29;100.00;102851.85;104615;1273;60423;-77
2023/01/24 22:17:58;;;;;;;55.50;18.40;;;;;;;-2.28;100.00;102850.20;104383;1277;74850;-79
2023/01/24 22:20:25;;;;;;;50.40;16.50;;;;;;;-2.26;100.00;102845.86;104722;1279;60742;-79
2023/01/24 22:23:12;;;;;;;45.50;16.70;;;;;;;-2.23;100.00;102841.25;104795;1279;60866;-77
2023/01/24 22:25:57;;;;;;;46.40;15.80;;;;;;;-2.20;100.00;102834.50;104727;1278;61540;-77
2023/01/24 22:28:23;;;;;;;50.70;16.60;;;;;;;-2.22;100.00;102824.09;104630;1278;73282;-79
2023/01/24 22:30:48;;;;;;;56.40;18.00;;;;;;;-2.24;100.00;102824.90;104709;1273;60350;-76
2023/01/24 22:33:17;;;;;;;52.00;17.40;;;;;;;-2.25;100.00;102825.02;104242;1279;60442;-79
2023/01/24 22:39:58;;;;;;;46.80;16.00;;;;;;;-2.18;100.00;102821.26;102650;1290;602832;-79
2023/01/24 22:42:24;;;;;;;46.80;17.10;;;;;;;-2.16;100.00;102821.10;102871;1294;60535;-79
2023/01/24 22:44:56;;;;;;;48.80;15.80;;;;;;;-2.14;100.00;102818.63;102638;1291;60486;-76
2023/01/24 22:47:22;;;;;;;49.20;16.50;;;;;;;-2.12;100.00;102819.22;103258;1294;74190;-79
2023/01/24 22:49:48;;;;;;;45.90;16.00;;;;;;;-2.12;100.00;102820.45;103213;1289;60418;-85
2023/01/24 22:55:44;;;;;;;44.20;15.00;;;;;;;-2.06;100.00;102815.54;102875;1292;600209;-76
2023/01/24 22:58:09;;;;;;;49.10;15.60;;;;;;;-2.06;100.00;102814.30;102941;1291;60416;-76
2023/01/24 23:00:35;;;;;;;42.40;15.10;;;;;;;-2.08;100.00;102810.94;102909;1295;60300;-77
2023/01/24 23:03:00;;;;;;;49.20;15.10;;;;;;;-2.12;100.00;102808.46;103120;1291;60341;-77
2023/01/24 23:05:26;;;;;;;42.80;14.80;;;;;;;-2.13;100.00;102810.48;102608;1294;73052;-77
2023/01/24 23:11:22;;;;;;;62.00;18.00;;;;;;;-2.06;100.00;102814.14;103622;1282;601120;-77
2023/01/24 23:17:05;;;;;;;47.20;16.40;;;;;;;-2.07;100.00;102805.94;103186;1285;60712;-75
2023/01/24 23:22:21;;;;;;;45.60;15.60;;;;;;;-2.13;100.00;102802.77;103578;1285;74882;-76
2023/01/24 23:24:51;;;;;;;45.70;15.50;;;;;;;-2.13;100.00;102806.42;103488;1284;212693;-78
2023/01/24 23:27:23;;;;;;;44.30;14.80;;;;;;;-2.12;100.00;102806.38;103981;1282;62326;-77
2023/01/24 23:33:28;;;;;;;40.00;14.40;;;;;;;-2.11;100.00;102807.31;104033;1282;73630;-78
2023/01/24 23:35:55;;;;;;;40.80;14.80;;;;;;;-2.09;100.00;102796.40;104083;1282;75704;-79
2023/01/24 23:38:21;;;;;;;41.20;15.30;;;;;;;-2.10;100.00;102797.38;103974;1282;74451;-79
2023/01/24 23:40:46;;;;;;;46.90;15.00;;;;;;;-2.12;100.00;102801.76;103965;1282;60409;-79
2023/01/24 23:43:12;;;;;;;41.80;14.60;;;;;;;-2.10;100.00;102795.80;103658;1284;60489;-79
2023/01/24 23:45:41;;;;;;;41.50;14.50;;;;;;;-2.09;100.00;102797.63;103870;1281;60400;-82
2023/01/24 23:48:19;;;;;;;42.20;14.00;;;;;;;-2.09;100.00;102801.38;103905;1284;60325;-83
2023/01/24 23:50:53;;;;;;;49.50;15.60;;;;;;;-2.08;100.00;102799.15;103913;1280;73295;-77
2023/01/24 23:53:18;;;;;;;39.40;14.80;;;;;;;-2.06;100.00;102791.44;104134;1282;63390;-78
2023/01/24 23:55:44;;;;;;;42.20;15.00;;;;;;;-2.05;100.00;102791.73;103958;1282;60434;-79
2023/01/24 23:58:10;;;;;;;41.60;14.30;;;;;;;-2.05;100.00;102791.01;103617;1282;61352;-78
